Mary Wepfer — WDG2646 — position and weather

sailwx.info

Track history (hours):
 
Tides and Currents Weather Stations Pressure Air Temp Water Temp Dewpoint Dewpoint Depression Visibility Wind Speed Wind Dir Waves Ship Positions

Mary Wepfer

Owner: Wepfer Marine, Inc., Memphis, TN. More information available from US FCC via Universal Licensing System and Coast Guard Vessel Documentation Center.

Last reported at 2018-Jan-20 20:35 UTC. Time now 2018-Jul-17 05:35 UTC.
Position N 32°40' W 091°08'.
Warning: this ship's position is months out of date.

Length 26 m; draft 3 m.

Type: Towing. MMSI: 367517760.

Date/timePositionNaut miles runAvg speedWind from/ knotsBaromVisibWave heightAir tempDewpointWater temp
2018-Jan-20 20:35N 32°40' W 091°08'1 6.4
2018-Jan-20 20:28N 32°39' W 091°09'3 6.3
2018-Jan-20 20:00N 32°36' W 091°09'3 6.6
2018-Jan-20 19:30N 32°34' W 091°06'3 6.3
2018-Jan-20 19:00N 32°31' W 091°07'3 6.5
2018-Jan-20 18:30N 32°28' W 091°06'3 6.8
2018-Jan-20 18:01N 32°26' W 091°02'3 5.7
2018-Jan-20 17:31N 32°24' W 090°60'3 6.1
2018-Jan-20 17:00N 32°21' W 090°59'4 7.3
2018-Jan-20 16:30N 32°20' W 090°55'3 6.2
2018-Jan-20 16:00N 32°23' W 090°53'1 1.5
2018-Jan-20 15:30N 32°23' W 090°54'0 0.1
2018-Jan-20 15:00N 32°23' W 090°54'0 0.5
2018-Jan-20 14:30N 32°23' W 090°53'0 0.6
2018-Jan-20 14:00N 32°23' W 090°54'0 0.1
2018-Jan-20 13:31N 32°23' W 090°54'1 2.3
2018-Jan-20 13:00N 32°23' W 090°53'1 2.5
2018-Jan-20 12:31N 32°23' W 090°54'0 0.4
2018-Jan-20 12:00N 32°23' W 090°54'0 0.3
2018-Jan-20 11:30N 32°23' W 090°54'0 0.0
2018-Jan-20 11:00N 32°23' W 090°54'0 0.0
2018-Jan-20 10:30N 32°23' W 090°54'0 0.0
2018-Jan-20 10:00N 32°23' W 090°54'0 0.0
2018-Jan-20 09:30N 32°23' W 090°54'0 0.0
2018-Jan-20 09:00N 32°23' W 090°54'0 0.0
2018-Jan-20 08:30N 32°23' W 090°54'0 0.0
2018-Jan-20 08:00N 32°23' W 090°54'0 0.0
2018-Jan-20 07:30N 32°23' W 090°54'0 0.0
2018-Jan-20 07:00N 32°23' W 090°54'0 0.0
2018-Jan-20 06:30N 32°23' W 090°54'0 0.1
2018-Jan-20 06:00N 32°23' W 090°53'0 0.0
2018-Jan-20 05:30N 32°23' W 090°53'0 0.0
2018-Jan-20 05:00N 32°23' W 090°53'1 1.3
2018-Jan-20 04:30N 32°23' W 090°53'3 6.4
2018-Jan-20 04:00N 32°20' W 090°54'2 4.1
2018-Jan-20 03:30N 32°18' W 090°55'0 0.4
2018-Jan-20 03:00N 32°18' W 090°55'4 8.6
2018-Jan-20 02:30N 32°22' W 090°53'2 3.3
2018-Jan-20 02:00N 32°23' W 090°54'1 1.6
2018-Jan-20 01:30N 32°23' W 090°53'1 2.7
2018-Jan-20 01:00N 32°22' W 090°53'1 2.8
2018-Jan-20 00:30N 32°21' W 090°54'1 2.6
2018-Jan-20 00:00N 32°22' W 090°53'2 3.4
2018-Jan-19 23:30N 32°23' W 090°54'2 3.3
2018-Jan-19 23:00N 32°22' W 090°53'3 5.8
2018-Jan-19 22:30N 32°19' W 090°54'3 5.1
2018-Jan-19 22:00N 32°17' W 090°56'3 5.5
2018-Jan-19 21:30N 32°15' W 090°59'3 5.4
2018-Jan-19 21:00N 32°13' W 090°59'3 5.7
2018-Jan-19 20:30N 32°10' W 091°00'3 5.2
2018-Jan-19 20:00N 32°07' W 091°01'3 5.2
2018-Jan-19 19:28N 32°08' W 091°05'2 4.1
2018-Jan-19 19:00N 32°07' W 091°06'1 1.4
2018-Jan-19 18:30N 32°06' W 091°06'1 2.0
2018-Jan-19 18:00N 32°07' W 091°07'0 0.1
2018-Jan-19 17:30N 32°07' W 091°07'0 0.0
2018-Jan-19 17:00N 32°07' W 091°07'0 0.0
2018-Jan-19 16:30N 32°07' W 091°07'0 0.0
2018-Jan-19 16:00N 32°07' W 091°07'0 0.0
2018-Jan-19 15:30N 32°07' W 091°07'1 2.3
2018-Jan-19 15:00N 32°06' W 091°06'0 0.4
2018-Jan-19 14:30N 32°06' W 091°06'1 2.3
2018-Jan-19 14:00N 32°07' W 091°07'0 0.2
2018-Jan-19 13:30N 32°07' W 091°07'0 0.5
2018-Jan-19 13:00N 32°07' W 091°06'0 0.0
2018-Jan-19 12:30N 32°07' W 091°06'1 1.9
2018-Jan-19 11:47N 32°06' W 091°05'1 2.8
2018-Jan-19 11:30N 32°06' W 091°06'0 0.0
2018-Jan-19 10:59N 32°06' W 091°06'0 0.0
2018-Jan-19 10:30N 32°06' W 091°06'0 0.0
2018-Jan-19 10:00N 32°06' W 091°06'0 0.0
2018-Jan-19 09:30N 32°06' W 091°06'0 0.0
2018-Jan-19 09:00N 32°06' W 091°06'0 0.0
2018-Jan-19 08:27N 32°06' W 091°06'0 0.0
2018-Jan-19 08:00N 32°06' W 091°06'0 0.0
2018-Jan-19 07:30N 32°06' W 091°06'0 0.0
2018-Jan-19 07:00N 32°06' W 091°06'0 0.0
2018-Jan-19 06:30N 32°06' W 091°06'0 0.0
2018-Jan-19 06:00N 32°06' W 091°06'0 0.0
2018-Jan-19 05:30N 32°06' W 091°06'0 0.0
2018-Jan-19 05:00N 32°06' W 091°06'0 0.0
2018-Jan-19 04:28N 32°06' W 091°06'0 0.0
2018-Jan-19 04:00N 32°06' W 091°06'0 0.0
2018-Jan-19 03:30N 32°06' W 091°06'0 0.0
2018-Jan-19 02:45N 32°06' W 091°06'0 0.0
2018-Jan-19 02:30N 32°06' W 091°06'0 0.0
2018-Jan-19 02:00N 32°06' W 091°06'0 0.0
2018-Jan-19 01:30N 32°06' W 091°06'1 1.9
2018-Jan-19 01:00N 32°07' W 091°07'2 0.7
2018-Jan-18 22:22N 32°06' W 091°05'2 4.8
2018-Jan-18 22:00N 32°07' W 091°07'0 0.0
2018-Jan-18 21:30N 32°07' W 091°07'0 0.2
2018-Jan-18 21:00N 32°07' W 091°07'0 0.0
2018-Jan-18 20:30N 32°07' W 091°07'0 0.4
2018-Jan-18 20:00N 32°07' W 091°06'0 0.0
2018-Jan-18 19:30N 32°07' W 091°06'0 0.0
2018-Jan-18 19:00N 32°07' W 091°06'0 0.0
2018-Jan-18 18:30N 32°07' W 091°06'0 0.1
2018-Jan-18 18:00N 32°07' W 091°06'1 1.6
2018-Jan-18 17:12N 32°06' W 091°05'2 8.0
2018-Jan-18 17:00N 32°07' W 091°06'0 0.2
2018-Jan-18 16:30N 32°07' W 091°07'0 0.5
2018-Jan-18 15:59N 32°07' W 091°06'0 0.0
2018-Jan-18 15:30N 32°07' W 091°06'0 0.0
2018-Jan-18 14:55N 32°07' W 091°06'0 0.0
2018-Jan-18 14:29N 32°07' W 091°06'0 0.0
2018-Jan-18 13:57N 32°07' W 091°06'0 0.8
2018-Jan-18 13:30N 32°06' W 091°06'0 0.5
2018-Jan-18 13:00N 32°06' W 091°06'0 0.0
2018-Jan-18 12:30N 32°06' W 091°06'0 0.0
2018-Jan-18 12:00N 32°06' W 091°06'0 0.0
2018-Jan-18 11:30N 32°06' W 091°06'0 0.0
2018-Jan-18 11:00N 32°06' W 091°06'0 0.0
2018-Jan-18 10:30N 32°06' W 091°06'0 0.0
2018-Jan-18 10:00N 32°06' W 091°06'0 0.0
2018-Jan-18 09:30N 32°06' W 091°06'0 0.0
2018-Jan-18 08:56N 32°06' W 091°06'0 0.0
2018-Jan-18 08:30N 32°06' W 091°06'0 0.0
2018-Jan-18 08:00N 32°06' W 091°06'0 0.0
2018-Jan-18 07:30N 32°06' W 091°06'0 0.0
2018-Jan-18 07:00N 32°06' W 091°06'0 0.0
2018-Jan-18 06:30N 32°06' W 091°06'0 0.0
2018-Jan-18 06:00N 32°06' W 091°06'0 0.0
2018-Jan-18 05:30N 32°06' W 091°06'0 0.0
2018-Jan-18 05:00N 32°06' W 091°06'0 0.0
2018-Jan-18 04:29N 32°06' W 091°06'0 0.0
2018-Jan-18 04:00N 32°06' W 091°06'0 0.0
2018-Jan-18 03:29N 32°06' W 091°06'0 0.0
2018-Jan-18 03:00N 32°06' W 091°06'0 0.0
2018-Jan-18 02:30N 32°06' W 091°06'0 0.0
2018-Jan-18 02:00N 32°06' W 091°06'0 0.0
2018-Jan-18 01:30N 32°06' W 091°06'0 0.0
2018-Jan-18 01:00N 32°06' W 091°06'0 0.3
2018-Jan-17 23:31N 32°06' W 091°06'  
2018-Jan-12 14:56N 32°06' W 091°06'1 2.3
2018-Jan-12 14:30N 32°07' W 091°06'0 0.0
2018-Jan-12 14:00N 32°07' W 091°06'0 0.0
2018-Jan-12 13:30N 32°07' W 091°06'0 0.0
2018-Jan-12 13:00N 32°07' W 091°06'0 0.0
2018-Jan-12 12:30N 32°07' W 091°06'0 0.1
2018-Jan-12 12:00N 32°07' W 091°06'1 0.1
2018-Jan-12 01:41N 32°06' W 091°05'0 1.4
2018-Jan-12 01:23N 32°06' W 091°06'0 0.2
2018-Jan-12 00:56N 32°06' W 091°06'1 2.5
2018-Jan-12 00:30N 32°07' W 091°06'1 1.1
2018-Jan-11 23:26N 32°06' W 091°05'1 2.6
2018-Jan-11 23:00N 32°07' W 091°06'0 0.0
2018-Jan-11 22:30N 32°07' W 091°06'1 1.3
2018-Jan-11 21:37N 32°06' W 091°05'110.5
2018-Jan-11 21:30N 32°06' W 091°06'0 0.2
2018-Jan-11 21:00N 32°07' W 091°06'0 0.0
2018-Jan-11 20:30N 32°07' W 091°06'0 0.0
2018-Jan-11 20:00N 32°07' W 091°06'0 0.1
2018-Jan-11 19:30N 32°07' W 091°06'1 2.3
2018-Jan-11 18:55N 32°06' W 091°05'1 3.3
2018-Jan-11 18:30N 32°07' W 091°06'0 0.0
2018-Jan-11 18:00N 32°07' W 091°06'0 0.0
2018-Jan-11 17:30N 32°07' W 091°06'0 0.0
2018-Jan-11 17:00N 32°07' W 091°06'0 0.0
2018-Jan-11 16:28N 32°07' W 091°06'0 0.0
2018-Jan-11 16:00N 32°07' W 091°06'0 0.0
2018-Jan-11 15:30N 32°07' W 091°06'0 0.1
2018-Jan-11 15:00N 32°07' W 091°06'0 0.0
2018-Jan-11 14:30N 32°06' W 091°06'1 1.0
2018-Jan-11 13:23N 32°06' W 091°05'1 3.7
2018-Jan-11 13:00N 32°07' W 091°06'0 0.1
2018-Jan-11 12:30N 32°07' W 091°06'1 1.5
2018-Jan-11 11:56N 32°06' W 091°06'0 0.0
2018-Jan-11 11:19N 32°06' W 091°06'0 0.0
2018-Jan-11 10:56N 32°06' W 091°06'0 0.1
2018-Jan-11 07:56N 32°06' W 091°06'0 0.0
2018-Jan-11 07:28N 32°06' W 091°06'0 0.1
2018-Jan-11 07:00N 32°06' W 091°06'4 1.7
2018-Jan-11 04:44N 32°02' W 091°04'2 5.4
2018-Jan-11 04:19N 32°00' W 091°05'  
Track history (hours):
 
Tides and Currents Weather Stations Pressure Air Temp Water Temp Dewpoint Dewpoint Depression Visibility Wind Speed Wind Dir Waves Ship Positions

Mary Wepfer

Owner: Wepfer Marine, Inc., Memphis, TN. More information available from US FCC via Universal Licensing System and Coast Guard Vessel Documentation Center.

Last reported at 2018-Jan-20 20:35 UTC. Time now 2018-Jul-17 05:35 UTC.
Position N 32°40' W 091°08'.
Warning: this ship's position is months out of date.

Length 26 m; draft 3 m.

Type: Towing. MMSI: 367517760.

Date/timePositionNaut miles runAvg speedWind from/ knotsBaromVisibWave heightAir tempDewpointWater temp
2018-Jan-20 20:35N 32°40' W 091°08'1 6.4
2018-Jan-20 20:28N 32°39' W 091°09'3 6.3
2018-Jan-20 20:00N 32°36' W 091°09'3 6.6
2018-Jan-20 19:30N 32°34' W 091°06'3 6.3
2018-Jan-20 19:00N 32°31' W 091°07'3 6.5
2018-Jan-20 18:30N 32°28' W 091°06'3 6.8
2018-Jan-20 18:01N 32°26' W 091°02'3 5.7
2018-Jan-20 17:31N 32°24' W 090°60'3 6.1
2018-Jan-20 17:00N 32°21' W 090°59'4 7.3
2018-Jan-20 16:30N 32°20' W 090°55'3 6.2
2018-Jan-20 16:00N 32°23' W 090°53'1 1.5
2018-Jan-20 15:30N 32°23' W 090°54'0 0.1
2018-Jan-20 15:00N 32°23' W 090°54'0 0.5
2018-Jan-20 14:30N 32°23' W 090°53'0 0.6
2018-Jan-20 14:00N 32°23' W 090°54'0 0.1
2018-Jan-20 13:31N 32°23' W 090°54'1 2.3
2018-Jan-20 13:00N 32°23' W 090°53'1 2.5
2018-Jan-20 12:31N 32°23' W 090°54'0 0.4
2018-Jan-20 12:00N 32°23' W 090°54'0 0.3
2018-Jan-20 11:30N 32°23' W 090°54'0 0.0
2018-Jan-20 11:00N 32°23' W 090°54'0 0.0
2018-Jan-20 10:30N 32°23' W 090°54'0 0.0
2018-Jan-20 10:00N 32°23' W 090°54'0 0.0
2018-Jan-20 09:30N 32°23' W 090°54'0 0.0
2018-Jan-20 09:00N 32°23' W 090°54'0 0.0
2018-Jan-20 08:30N 32°23' W 090°54'0 0.0
2018-Jan-20 08:00N 32°23' W 090°54'0 0.0
2018-Jan-20 07:30N 32°23' W 090°54'0 0.0
2018-Jan-20 07:00N 32°23' W 090°54'0 0.0
2018-Jan-20 06:30N 32°23' W 090°54'0 0.1
2018-Jan-20 06:00N 32°23' W 090°53'0 0.0
2018-Jan-20 05:30N 32°23' W 090°53'0 0.0
2018-Jan-20 05:00N 32°23' W 090°53'1 1.3
2018-Jan-20 04:30N 32°23' W 090°53'3 6.4
2018-Jan-20 04:00N 32°20' W 090°54'2 4.1
2018-Jan-20 03:30N 32°18' W 090°55'0 0.4
2018-Jan-20 03:00N 32°18' W 090°55'4 8.6
2018-Jan-20 02:30N 32°22' W 090°53'2 3.3
2018-Jan-20 02:00N 32°23' W 090°54'1 1.6
2018-Jan-20 01:30N 32°23' W 090°53'1 2.7
2018-Jan-20 01:00N 32°22' W 090°53'1 2.8
2018-Jan-20 00:30N 32°21' W 090°54'1 2.6
2018-Jan-20 00:00N 32°22' W 090°53'2 3.4
2018-Jan-19 23:30N 32°23' W 090°54'2 3.3
2018-Jan-19 23:00N 32°22' W 090°53'3 5.8
2018-Jan-19 22:30N 32°19' W 090°54'3 5.1
2018-Jan-19 22:00N 32°17' W 090°56'3 5.5
2018-Jan-19 21:30N 32°15' W 090°59'3 5.4
2018-Jan-19 21:00N 32°13' W 090°59'3 5.7
2018-Jan-19 20:30N 32°10' W 091°00'3 5.2
2018-Jan-19 20:00N 32°07' W 091°01'3 5.2
2018-Jan-19 19:28N 32°08' W 091°05'2 4.1
2018-Jan-19 19:00N 32°07' W 091°06'1 1.4
2018-Jan-19 18:30N 32°06' W 091°06'1 2.0
2018-Jan-19 18:00N 32°07' W 091°07'0 0.1
2018-Jan-19 17:30N 32°07' W 091°07'0 0.0
2018-Jan-19 17:00N 32°07' W 091°07'0 0.0
2018-Jan-19 16:30N 32°07' W 091°07'0 0.0
2018-Jan-19 16:00N 32°07' W 091°07'0 0.0
2018-Jan-19 15:30N 32°07' W 091°07'1 2.3
2018-Jan-19 15:00N 32°06' W 091°06'0 0.4
2018-Jan-19 14:30N 32°06' W 091°06'1 2.3
2018-Jan-19 14:00N 32°07' W 091°07'0 0.2
2018-Jan-19 13:30N 32°07' W 091°07'0 0.5
2018-Jan-19 13:00N 32°07' W 091°06'0 0.0
2018-Jan-19 12:30N 32°07' W 091°06'1 1.9
2018-Jan-19 11:47N 32°06' W 091°05'1 2.8
2018-Jan-19 11:30N 32°06' W 091°06'0 0.0
2018-Jan-19 10:59N 32°06' W 091°06'0 0.0
2018-Jan-19 10:30N 32°06' W 091°06'0 0.0
2018-Jan-19 10:00N 32°06' W 091°06'0 0.0
2018-Jan-19 09:30N 32°06' W 091°06'0 0.0
2018-Jan-19 09:00N 32°06' W 091°06'0 0.0
2018-Jan-19 08:27N 32°06' W 091°06'0 0.0
2018-Jan-19 08:00N 32°06' W 091°06'0 0.0
2018-Jan-19 07:30N 32°06' W 091°06'0 0.0
2018-Jan-19 07:00N 32°06' W 091°06'0 0.0
2018-Jan-19 06:30N 32°06' W 091°06'0 0.0
2018-Jan-19 06:00N 32°06' W 091°06'0 0.0
2018-Jan-19 05:30N 32°06' W 091°06'0 0.0
2018-Jan-19 05:00N 32°06' W 091°06'0 0.0
2018-Jan-19 04:28N 32°06' W 091°06'0 0.0
2018-Jan-19 04:00N 32°06' W 091°06'0 0.0
2018-Jan-19 03:30N 32°06' W 091°06'0 0.0
2018-Jan-19 02:45N 32°06' W 091°06'0 0.0
2018-Jan-19 02:30N 32°06' W 091°06'0 0.0
2018-Jan-19 02:00N 32°06' W 091°06'0 0.0
2018-Jan-19 01:30N 32°06' W 091°06'1 1.9
2018-Jan-19 01:00N 32°07' W 091°07'2 0.7
2018-Jan-18 22:22N 32°06' W 091°05'2 4.8
2018-Jan-18 22:00N 32°07' W 091°07'0 0.0
2018-Jan-18 21:30N 32°07' W 091°07'0 0.2
2018-Jan-18 21:00N 32°07' W 091°07'0 0.0
2018-Jan-18 20:30N 32°07' W 091°07'0 0.4
2018-Jan-18 20:00N 32°07' W 091°06'0 0.0
2018-Jan-18 19:30N 32°07' W 091°06'0 0.0
2018-Jan-18 19:00N 32°07' W 091°06'0 0.0
2018-Jan-18 18:30N 32°07' W 091°06'0 0.1
2018-Jan-18 18:00N 32°07' W 091°06'1 1.6
2018-Jan-18 17:12N 32°06' W 091°05'2 8.0
2018-Jan-18 17:00N 32°07' W 091°06'0 0.2
2018-Jan-18 16:30N 32°07' W 091°07'0 0.5
2018-Jan-18 15:59N 32°07' W 091°06'0 0.0
2018-Jan-18 15:30N 32°07' W 091°06'0 0.0
2018-Jan-18 14:55N 32°07' W 091°06'0 0.0
2018-Jan-18 14:29N 32°07' W 091°06'0 0.0
2018-Jan-18 13:57N 32°07' W 091°06'0 0.8
2018-Jan-18 13:30N 32°06' W 091°06'0 0.5
2018-Jan-18 13:00N 32°06' W 091°06'0 0.0
2018-Jan-18 12:30N 32°06' W 091°06'0 0.0
2018-Jan-18 12:00N 32°06' W 091°06'0 0.0
2018-Jan-18 11:30N 32°06' W 091°06'0 0.0
2018-Jan-18 11:00N 32°06' W 091°06'0 0.0
2018-Jan-18 10:30N 32°06' W 091°06'0 0.0
2018-Jan-18 10:00N 32°06' W 091°06'0 0.0
2018-Jan-18 09:30N 32°06' W 091°06'0 0.0
2018-Jan-18 08:56N 32°06' W 091°06'0 0.0
2018-Jan-18 08:30N 32°06' W 091°06'0 0.0
2018-Jan-18 08:00N 32°06' W 091°06'0 0.0
2018-Jan-18 07:30N 32°06' W 091°06'0 0.0
2018-Jan-18 07:00N 32°06' W 091°06'0 0.0
2018-Jan-18 06:30N 32°06' W 091°06'0 0.0
2018-Jan-18 06:00N 32°06' W 091°06'0 0.0
2018-Jan-18 05:30N 32°06' W 091°06'0 0.0
2018-Jan-18 05:00N 32°06' W 091°06'0 0.0
2018-Jan-18 04:29N 32°06' W 091°06'0 0.0
2018-Jan-18 04:00N 32°06' W 091°06'0 0.0
2018-Jan-18 03:29N 32°06' W 091°06'0 0.0
2018-Jan-18 03:00N 32°06' W 091°06'0 0.0
2018-Jan-18 02:30N 32°06' W 091°06'0 0.0
2018-Jan-18 02:00N 32°06' W 091°06'0 0.0
2018-Jan-18 01:30N 32°06' W 091°06'0 0.0
2018-Jan-18 01:00N 32°06' W 091°06'0 0.3
2018-Jan-17 23:31N 32°06' W 091°06'  
2018-Jan-12 14:56N 32°06' W 091°06'1 2.3
2018-Jan-12 14:30N 32°07' W 091°06'0 0.0
2018-Jan-12 14:00N 32°07' W 091°06'0 0.0
2018-Jan-12 13:30N 32°07' W 091°06'0 0.0
2018-Jan-12 13:00N 32°07' W 091°06'0 0.0
2018-Jan-12 12:30N 32°07' W 091°06'0 0.1
2018-Jan-12 12:00N 32°07' W 091°06'1 0.1
2018-Jan-12 01:41N 32°06' W 091°05'0 1.4
2018-Jan-12 01:23N 32°06' W 091°06'0 0.2
2018-Jan-12 00:56N 32°06' W 091°06'1 2.5
2018-Jan-12 00:30N 32°07' W 091°06'1 1.1
2018-Jan-11 23:26N 32°06' W 091°05'1 2.6
2018-Jan-11 23:00N 32°07' W 091°06'0 0.0
2018-Jan-11 22:30N 32°07' W 091°06'1 1.3
2018-Jan-11 21:37N 32°06' W 091°05'110.5
2018-Jan-11 21:30N 32°06' W 091°06'0 0.2
2018-Jan-11 21:00N 32°07' W 091°06'0 0.0
2018-Jan-11 20:30N 32°07' W 091°06'0 0.0
2018-Jan-11 20:00N 32°07' W 091°06'0 0.1
2018-Jan-11 19:30N 32°07' W 091°06'1 2.3
2018-Jan-11 18:55N 32°06' W 091°05'1 3.3
2018-Jan-11 18:30N 32°07' W 091°06'0 0.0
2018-Jan-11 18:00N 32°07' W 091°06'0 0.0
2018-Jan-11 17:30N 32°07' W 091°06'0 0.0
2018-Jan-11 17:00N 32°07' W 091°06'0 0.0
2018-Jan-11 16:28N 32°07' W 091°06'0 0.0
2018-Jan-11 16:00N 32°07' W 091°06'0 0.0
2018-Jan-11 15:30N 32°07' W 091°06'0 0.1
2018-Jan-11 15:00N 32°07' W 091°06'0 0.0
2018-Jan-11 14:30N 32°06' W 091°06'1 1.0
2018-Jan-11 13:23N 32°06' W 091°05'1 3.7
2018-Jan-11 13:00N 32°07' W 091°06'0 0.1
2018-Jan-11 12:30N 32°07' W 091°06'1 1.5
2018-Jan-11 11:56N 32°06' W 091°06'0 0.0
2018-Jan-11 11:19N 32°06' W 091°06'0 0.0
2018-Jan-11 10:56N 32°06' W 091°06'0 0.1
2018-Jan-11 07:56N 32°06' W 091°06'0 0.0
2018-Jan-11 07:28N 32°06' W 091°06'0 0.1
2018-Jan-11 07:00N 32°06' W 091°06'4 1.7
2018-Jan-11 04:44N 32°02' W 091°04'2 5.4
2018-Jan-11 04:19N 32°00' W 091°05'  

Dump ship's entire track history